KFYV/FYV METAR and TAF weather

Enter ICAO airport designator
Station Type Date Time Source
KFYV METAR 2019/04/25 09:53 UTC NOAA

KFYV 250953Z AUTO 00000KT 5SM -RA BR OVC005 16/15 A2974 RMK AO2 SLP062 P0005 T01560150


Station Type Date Time Source
KFYV Decoded METAR 2019/04/25 09:53 UTC NOAA

FAYETTEVILLE DRAKE FIELD, AR, United States (KFYV) 36-00N 94-10W 379M
Apr 25, 2019 - 05:53 AM EDT / 2019.04.25 0953 UTC
Wind: Calm:0
Visibility: 5 mile(s):0
Sky conditions: overcast
Weather: light rain; mist
Precipitation last hour: 0.05 inches
Temperature: 60.1 F (15.6 C)
Dew Point: 59.0 F (15.0 C)
Relative Humidity: 96%
Pressure (altimeter): 29.74 in. Hg (1007 hPa)
ob: KFYV 250953Z AUTO 00000KT 5SM -RA BR OVC005 16/15 A2974 RMK AO2 SLP062 P0005 T01560150
cycle: 10

Station Type Date Time Source
KFYV TAF 2019/04/25 06:22 UTC NOAA

TAF KFYV 250520Z 2506/2606 25004KT P6SM VCSH BKN021 OVC035
TEMPO 2508/2512 5SM -SHRA BR OVC007
FM251200 36006KT 4SM -SHRA BR OVC007
FM251800 32010KT P6SM OVC015
FM252200 32010KT P6SM BKN050
FM260200 32012KT P6SM BKN250

Example: see airport list